sensor_id;sensor_type;location;lat;lon;timestamp;P1;durP1;ratioP1;P2;durP2;ratioP2
25810;SDS011;13645;52.460;13.910;2023-07-13T00:00:10;8.63;;;2.13;;
25810;SDS011;13645;52.460;13.910;2023-07-13T00:02:37;6.32;;;2.75;;
25810;SDS011;13645;52.460;13.910;2023-07-13T00:05:05;7.90;;;2.33;;
25810;SDS011;13645;52.460;13.910;2023-07-13T00:07:32;6.20;;;2.30;;
25810;SDS011;13645;52.460;13.910;2023-07-13T00:09:59;7.53;;;2.50;;
25810;SDS011;13645;52.460;13.910;2023-07-13T00:12:30;6.50;;;2.33;;
25810;SDS011;13645;52.460;13.910;2023-07-13T00:15:00;4.40;;;2.38;;
25810;SDS011;13645;52.460;13.910;2023-07-13T00:17:30;3.17;;;2.08;;
25810;SDS011;13645;52.460;13.910;2023-07-13T00:19:57;7.80;;;2.80;;
25810;SDS011;13645;52.460;13.910;2023-07-13T00:22:24;4.70;;;2.40;;
25810;SDS011;13645;52.460;13.910;2023-07-13T00:24:52;4.97;;;1.90;;
25810;SDS011;13645;52.460;13.910;2023-07-13T00:27:22;4.22;;;2.45;;
25810;SDS011;13645;52.460;13.910;2023-07-13T00:29:50;7.80;;;2.67;;
25810;SDS011;13645;52.460;13.910;2023-07-13T00:32:16;4.15;;;2.40;;
25810;SDS011;13645;52.460;13.910;2023-07-13T00:34:43;5.45;;;2.80;;
25810;SDS011;13645;52.460;13.910;2023-07-13T00:37:10;8.10;;;2.92;;
25810;SDS011;13645;52.460;13.910;2023-07-13T00:39:37;4.78;;;2.85;;
25810;SDS011;13645;52.460;13.910;2023-07-13T00:42:05;10.52;;;2.80;;
25810;SDS011;13645;52.460;13.910;2023-07-13T00:44:32;8.50;;;2.60;;
25810;SDS011;13645;52.460;13.910;2023-07-13T00:46:59;7.60;;;2.83;;
25810;SDS011;13645;52.460;13.910;2023-07-13T00:49:27;3.55;;;2.50;;
25810;SDS011;13645;52.460;13.910;2023-07-13T00:52:01;4.93;;;2.50;;
25810;SDS011;13645;52.460;13.910;2023-07-13T00:54:38;5.82;;;2.70;;
25810;SDS011;13645;52.460;13.910;2023-07-13T00:57:08;4.68;;;2.58;;
25810;SDS011;13645;52.460;13.910;2023-07-13T00:59:38;7.68;;;2.50;;
25810;SDS011;13645;52.460;13.910;2023-07-13T01:02:08;7.60;;;2.80;;
25810;SDS011;13645;52.460;13.910;2023-07-13T01:04:36;4.75;;;2.53;;
25810;SDS011;13645;52.460;13.910;2023-07-13T01:07:05;3.80;;;2.38;;
25810;SDS011;13645;52.460;13.910;2023-07-13T01:09:32;4.47;;;2.40;;
25810;SDS011;13645;52.460;13.910;2023-07-13T01:12:00;6.80;;;2.83;;
25810;SDS011;13645;52.460;13.910;2023-07-13T01:14:27;5.13;;;2.42;;
25810;SDS011;13645;52.460;13.910;2023-07-13T01:16:54;5.75;;;2.78;;
25810;SDS011;13645;52.460;13.910;2023-07-13T01:19:39;6.85;;;2.80;;
25810;SDS011;13645;52.460;13.910;2023-07-13T01:24:39;5.22;;;3.08;;
25810;SDS011;13645;52.460;13.910;2023-07-13T01:27:09;9.30;;;3.20;;
25810;SDS011;13645;52.460;13.910;2023-07-13T01:29:38;11.82;;;2.80;;
25810;SDS011;13645;52.460;13.910;2023-07-13T01:32:18;6.70;;;2.90;;
25810;SDS011;13645;52.460;13.910;2023-07-13T01:34:48;3.45;;;3.15;;
25810;SDS011;13645;52.460;13.910;2023-07-13T01:37:15;6.07;;;3.03;;
25810;SDS011;13645;52.460;13.910;2023-07-13T01:39:41;6.75;;;2.80;;
25810;SDS011;13645;52.460;13.910;2023-07-13T01:42:09;8.50;;;2.67;;
25810;SDS011;13645;52.460;13.910;2023-07-13T01:44:36;4.63;;;2.67;;
25810;SDS011;13645;52.460;13.910;2023-07-13T01:47:02;6.45;;;2.80;;
25810;SDS011;13645;52.460;13.910;2023-07-13T01:49:29;5.85;;;2.63;;
25810;SDS011;13645;52.460;13.910;2023-07-13T01:51:56;4.57;;;2.83;;
25810;SDS011;13645;52.460;13.910;2023-07-13T01:54:23;7.70;;;3.00;;
25810;SDS011;13645;52.460;13.910;2023-07-13T01:56:50;3.90;;;2.50;;
25810;SDS011;13645;52.460;13.910;2023-07-13T01:59:17;6.05;;;3.00;;
25810;SDS011;13645;52.460;13.910;2023-07-13T02:01:44;10.15;;;2.83;;
25810;SDS011;13645;52.460;13.910;2023-07-13T02:04:11;7.03;;;3.08;;
25810;SDS011;13645;52.460;13.910;2023-07-13T02:06:38;13.70;;;3.10;;
25810;SDS011;13645;52.460;13.910;2023-07-13T02:09:04;4.45;;;3.15;;
25810;SDS011;13645;52.460;13.910;2023-07-13T02:11:32;10.63;;;3.28;;
25810;SDS011;13645;52.460;13.910;2023-07-13T02:14:00;7.68;;;2.88;;
25810;SDS011;13645;52.460;13.910;2023-07-13T02:16:28;7.15;;;3.13;;
25810;SDS011;13645;52.460;13.910;2023-07-13T02:18:56;7.78;;;3.50;;
25810;SDS011;13645;52.460;13.910;2023-07-13T02:21:23;6.25;;;3.10;;
25810;SDS011;13645;52.460;13.910;2023-07-13T02:23:50;7.50;;;3.10;;
25810;SDS011;13645;52.460;13.910;2023-07-13T02:26:18;6.82;;;3.33;;
25810;SDS011;13645;52.460;13.910;2023-07-13T02:28:46;7.28;;;3.80;;
25810;SDS011;13645;52.460;13.910;2023-07-13T02:31:14;4.40;;;3.30;;
25810;SDS011;13645;52.460;13.910;2023-07-13T02:33:41;6.13;;;3.30;;
25810;SDS011;13645;52.460;13.910;2023-07-13T02:36:09;5.63;;;3.35;;
25810;SDS011;13645;52.460;13.910;2023-07-13T02:38:37;6.18;;;3.10;;
25810;SDS011;13645;52.460;13.910;2023-07-13T02:41:05;6.22;;;2.88;;
25810;SDS011;13645;52.460;13.910;2023-07-13T02:43:33;8.68;;;3.15;;
25810;SDS011;13645;52.460;13.910;2023-07-13T02:46:00;8.35;;;3.13;;
25810;SDS011;13645;52.460;13.910;2023-07-13T02:48:34;5.68;;;3.10;;
25810;SDS011;13645;52.460;13.910;2023-07-13T02:51:01;6.38;;;3.35;;
25810;SDS011;13645;52.460;13.910;2023-07-13T02:53:28;6.10;;;3.20;;
25810;SDS011;13645;52.460;13.910;2023-07-13T02:55:55;5.05;;;3.47;;
25810;SDS011;13645;52.460;13.910;2023-07-13T02:58:22;4.78;;;3.47;;
25810;SDS011;13645;52.460;13.910;2023-07-13T03:00:49;7.20;;;3.65;;
25810;SDS011;13645;52.460;13.910;2023-07-13T03:03:16;5.95;;;3.90;;
25810;SDS011;13645;52.460;13.910;2023-07-13T03:05:44;5.18;;;3.50;;
25810;SDS011;13645;52.460;13.910;2023-07-13T03:08:16;7.43;;;3.67;;
25810;SDS011;13645;52.460;13.910;2023-07-13T03:10:44;6.82;;;3.85;;
25810;SDS011;13645;52.460;13.910;2023-07-13T03:13:11;6.90;;;3.97;;
25810;SDS011;13645;52.460;13.910;2023-07-13T03:15:38;7.20;;;3.50;;
25810;SDS011;13645;52.460;13.910;2023-07-13T03:18:04;5.32;;;3.50;;
25810;SDS011;13645;52.460;13.910;2023-07-13T03:20:32;6.32;;;3.47;;
25810;SDS011;13645;52.460;13.910;2023-07-13T03:23:00;7.07;;;3.20;;
25810;SDS011;13645;52.460;13.910;2023-07-13T03:25:27;4.47;;;3.53;;
25810;SDS011;13645;52.460;13.910;2023-07-13T03:27:54;6.78;;;3.83;;
25810;SDS011;13645;52.460;13.910;2023-07-13T03:30:20;12.45;;;4.10;;
25810;SDS011;13645;52.460;13.910;2023-07-13T03:32:47;5.78;;;3.75;;
25810;SDS011;13645;52.460;13.910;2023-07-13T03:35:14;6.03;;;4.32;;
25810;SDS011;13645;52.460;13.910;2023-07-13T03:37:41;6.22;;;3.53;;
25810;SDS011;13645;52.460;13.910;2023-07-13T03:40:09;7.30;;;3.90;;
25810;SDS011;13645;52.460;13.910;2023-07-13T03:42:36;7.53;;;3.72;;
25810;SDS011;13645;52.460;13.910;2023-07-13T03:45:03;10.25;;;3.85;;
25810;SDS011;13645;52.460;13.910;2023-07-13T03:47:30;6.55;;;3.38;;
25810;SDS011;13645;52.460;13.910;2023-07-13T03:49:57;10.93;;;5.78;;
25810;SDS011;13645;52.460;13.910;2023-07-13T03:52:24;12.32;;;6.35;;
25810;SDS011;13645;52.460;13.910;2023-07-13T03:54:51;10.38;;;5.60;;
25810;SDS011;13645;52.460;13.910;2023-07-13T03:57:18;12.00;;;6.22;;
25810;SDS011;13645;52.460;13.910;2023-07-13T03:59:44;8.00;;;5.53;;
25810;SDS011;13645;52.460;13.910;2023-07-13T04:02:11;9.07;;;5.50;;
25810;SDS011;13645;52.460;13.910;2023-07-13T04:04:38;8.75;;;5.50;;
25810;SDS011;13645;52.460;13.910;2023-07-13T04:07:07;8.43;;;5.05;;
25810;SDS011;13645;52.460;13.910;2023-07-13T04:09:37;10.40;;;4.53;;
25810;SDS011;13645;52.460;13.910;2023-07-13T04:12:04;11.60;;;4.70;;
25810;SDS011;13645;52.460;13.910;2023-07-13T04:14:31;9.88;;;4.65;;
25810;SDS011;13645;52.460;13.910;2023-07-13T04:16:58;7.68;;;5.35;;
25810;SDS011;13645;52.460;13.910;2023-07-13T04:19:24;11.60;;;5.07;;
25810;SDS011;13645;52.460;13.910;2023-07-13T04:21:51;8.48;;;5.15;;
25810;SDS011;13645;52.460;13.910;2023-07-13T04:24:18;12.43;;;5.30;;
25810;SDS011;13645;52.460;13.910;2023-07-13T04:26:45;8.15;;;4.95;;
25810;SDS011;13645;52.460;13.910;2023-07-13T04:29:12;7.10;;;4.93;;
25810;SDS011;13645;52.460;13.910;2023-07-13T04:31:38;10.32;;;4.60;;
25810;SDS011;13645;52.460;13.910;2023-07-13T04:34:05;6.25;;;4.38;;
25810;SDS011;13645;52.460;13.910;2023-07-13T04:36:33;11.68;;;4.88;;
25810;SDS011;13645;52.460;13.910;2023-07-13T04:38:59;8.55;;;4.93;;
25810;SDS011;13645;52.460;13.910;2023-07-13T04:41:26;8.15;;;4.40;;
25810;SDS011;13645;52.460;13.910;2023-07-13T04:43:54;8.88;;;4.40;;
25810;SDS011;13645;52.460;13.910;2023-07-13T04:46:22;7.72;;;5.15;;
25810;SDS011;13645;52.460;13.910;2023-07-13T04:48:49;7.65;;;4.50;;
25810;SDS011;13645;52.460;13.910;2023-07-13T04:51:19;8.00;;;4.63;;
25810;SDS011;13645;52.460;13.910;2023-07-13T04:53:46;8.52;;;5.03;;
25810;SDS011;13645;52.460;13.910;2023-07-13T04:56:13;6.93;;;4.65;;
25810;SDS011;13645;52.460;13.910;2023-07-13T04:58:40;10.18;;;4.28;;
25810;SDS011;13645;52.460;13.910;2023-07-13T05:01:06;9.18;;;5.00;;
25810;SDS011;13645;52.460;13.910;2023-07-13T05:03:35;9.45;;;4.80;;
25810;SDS011;13645;52.460;13.910;2023-07-13T05:06:06;12.68;;;5.15;;
25810;SDS011;13645;52.460;13.910;2023-07-13T05:08:36;6.32;;;4.88;;
25810;SDS011;13645;52.460;13.910;2023-07-13T05:11:03;7.85;;;4.80;;
25810;SDS011;13645;52.460;13.910;2023-07-13T05:13:31;12.98;;;5.05;;
25810;SDS011;13645;52.460;13.910;2023-07-13T05:15:58;6.57;;;5.18;;
25810;SDS011;13645;52.460;13.910;2023-07-13T05:18:27;16.92;;;5.07;;
25810;SDS011;13645;52.460;13.910;2023-07-13T05:20:58;8.02;;;5.28;;
25810;SDS011;13645;52.460;13.910;2023-07-13T05:23:30;9.77;;;4.65;;
25810;SDS011;13645;52.460;13.910;2023-07-13T05:25:57;16.27;;;3.97;;
25810;SDS011;13645;52.460;13.910;2023-07-13T05:28:25;13.77;;;5.10;;
25810;SDS011;13645;52.460;13.910;2023-07-13T05:30:54;6.20;;;4.00;;
25810;SDS011;13645;52.460;13.910;2023-07-13T05:33:21;7.28;;;4.20;;
25810;SDS011;13645;52.460;13.910;2023-07-13T05:35:49;7.07;;;3.63;;
25810;SDS011;13645;52.460;13.910;2023-07-13T05:38:16;6.03;;;3.63;;
25810;SDS011;13645;52.460;13.910;2023-07-13T05:40:43;6.75;;;3.75;;
25810;SDS011;13645;52.460;13.910;2023-07-13T05:43:11;14.25;;;3.75;;
25810;SDS011;13645;52.460;13.910;2023-07-13T05:45:38;11.02;;;3.22;;
25810;SDS011;13645;52.460;13.910;2023-07-13T05:48:05;12.10;;;3.33;;
25810;SDS011;13645;52.460;13.910;2023-07-13T05:50:31;11.60;;;3.45;;
25810;SDS011;13645;52.460;13.910;2023-07-13T05:52:58;10.60;;;3.50;;
25810;SDS011;13645;52.460;13.910;2023-07-13T05:55:25;10.77;;;3.00;;
25810;SDS011;13645;52.460;13.910;2023-07-13T05:57:52;7.72;;;3.20;;
25810;SDS011;13645;52.460;13.910;2023-07-13T06:00:19;5.70;;;3.08;;
25810;SDS011;13645;52.460;13.910;2023-07-13T06:02:46;10.45;;;3.00;;
25810;SDS011;13645;52.460;13.910;2023-07-13T06:05:12;7.88;;;3.00;;
25810;SDS011;13645;52.460;13.910;2023-07-13T06:07:39;11.35;;;3.20;;
25810;SDS011;13645;52.460;13.910;2023-07-13T06:10:07;8.73;;;2.97;;
25810;SDS011;13645;52.460;13.910;2023-07-13T06:12:34;12.65;;;2.88;;
25810;SDS011;13645;52.460;13.910;2023-07-13T06:15:00;11.90;;;3.03;;
25810;SDS011;13645;52.460;13.910;2023-07-13T06:17:27;6.55;;;2.72;;
25810;SDS011;13645;52.460;13.910;2023-07-13T06:19:54;9.45;;;2.80;;
25810;SDS011;13645;52.460;13.910;2023-07-13T06:22:21;6.88;;;2.70;;
25810;SDS011;13645;52.460;13.910;2023-07-13T06:24:48;7.18;;;2.72;;
25810;SDS011;13645;52.460;13.910;2023-07-13T06:27:14;5.22;;;2.53;;
25810;SDS011;13645;52.460;13.910;2023-07-13T06:29:42;7.75;;;1.90;;
25810;SDS011;13645;52.460;13.910;2023-07-13T06:32:11;6.15;;;2.30;;
25810;SDS011;13645;52.460;13.910;2023-07-13T06:34:38;6.75;;;2.10;;
25810;SDS011;13645;52.460;13.910;2023-07-13T06:37:08;6.28;;;2.05;;
25810;SDS011;13645;52.460;13.910;2023-07-13T06:39:36;7.28;;;2.28;;
25810;SDS011;13645;52.460;13.910;2023-07-13T06:42:03;7.43;;;2.63;;
25810;SDS011;13645;52.460;13.910;2023-07-13T06:44:30;11.50;;;2.60;;
25810;SDS011;13645;52.460;13.910;2023-07-13T06:46:57;9.10;;;2.30;;
25810;SDS011;13645;52.460;13.910;2023-07-13T06:49:24;9.45;;;2.38;;
25810;SDS011;13645;52.460;13.910;2023-07-13T06:51:51;11.23;;;2.58;;
25810;SDS011;13645;52.460;13.910;2023-07-13T06:54:17;13.23;;;2.70;;
25810;SDS011;13645;52.460;13.910;2023-07-13T06:56:44;7.00;;;1.95;;
25810;SDS011;13645;52.460;13.910;2023-07-13T06:59:11;10.70;;;2.30;;
25810;SDS011;13645;52.460;13.910;2023-07-13T07:01:38;10.38;;;2.50;;
25810;SDS011;13645;52.460;13.910;2023-07-13T07:04:07;8.50;;;2.30;;
25810;SDS011;13645;52.460;13.910;2023-07-13T07:06:34;8.20;;;2.28;;
25810;SDS011;13645;52.460;13.910;2023-07-13T07:09:01;6.50;;;2.47;;
25810;SDS011;13645;52.460;13.910;2023-07-13T07:11:28;6.05;;;2.35;;
25810;SDS011;13645;52.460;13.910;2023-07-13T07:13:55;8.90;;;2.33;;
25810;SDS011;13645;52.460;13.910;2023-07-13T07:16:22;11.68;;;2.83;;
25810;SDS011;13645;52.460;13.910;2023-07-13T07:18:51;9.00;;;2.50;;
25810;SDS011;13645;52.460;13.910;2023-07-13T07:21:17;8.20;;;2.00;;
25810;SDS011;13645;52.460;13.910;2023-07-13T07:23:45;12.48;;;2.35;;
25810;SDS011;13645;52.460;13.910;2023-07-13T07:26:12;10.75;;;2.70;;
25810;SDS011;13645;52.460;13.910;2023-07-13T07:28:39;9.20;;;2.22;;
25810;SDS011;13645;52.460;13.910;2023-07-13T07:31:11;7.75;;;2.53;;
25810;SDS011;13645;52.460;13.910;2023-07-13T07:33:41;16.48;;;3.58;;
25810;SDS011;13645;52.460;13.910;2023-07-13T07:36:08;8.07;;;2.30;;
25810;SDS011;13645;52.460;13.910;2023-07-13T07:38:38;53.17;;;6.32;;
25810;SDS011;13645;52.460;13.910;2023-07-13T07:41:04;6.22;;;2.00;;
25810;SDS011;13645;52.460;13.910;2023-07-13T07:43:35;24.92;;;5.63;;
25810;SDS011;13645;52.460;13.910;2023-07-13T07:46:02;23.63;;;5.20;;
25810;SDS011;13645;52.460;13.910;2023-07-13T07:48:29;20.23;;;2.85;;
25810;SDS011;13645;52.460;13.910;2023-07-13T07:50:57;10.02;;;1.73;;
25810;SDS011;13645;52.460;13.910;2023-07-13T07:53:24;4.32;;;1.67;;
25810;SDS011;13645;52.460;13.910;2023-07-13T07:55:51;6.70;;;1.77;;
25810;SDS011;13645;52.460;13.910;2023-07-13T07:58:21;6.97;;;1.73;;
25810;SDS011;13645;52.460;13.910;2023-07-13T08:00:51;5.38;;;1.40;;
25810;SDS011;13645;52.460;13.910;2023-07-13T08:03:21;6.35;;;1.75;;
25810;SDS011;13645;52.460;13.910;2023-07-13T08:05:52;5.68;;;1.73;;
25810;SDS011;13645;52.460;13.910;2023-07-13T08:08:23;6.28;;;1.67;;
25810;SDS011;13645;52.460;13.910;2023-07-13T08:10:50;5.15;;;1.70;;
25810;SDS011;13645;52.460;13.910;2023-07-13T08:13:20;5.32;;;1.80;;
25810;SDS011;13645;52.460;13.910;2023-07-13T08:15:47;4.97;;;1.65;;
25810;SDS011;13645;52.460;13.910;2023-07-13T08:18:14;9.20;;;1.90;;
25810;SDS011;13645;52.460;13.910;2023-07-13T08:20:41;7.57;;;1.63;;
25810;SDS011;13645;52.460;13.910;2023-07-13T08:23:08;4.22;;;1.50;;
25810;SDS011;13645;52.460;13.910;2023-07-13T08:25:36;3.88;;;1.40;;
25810;SDS011;13645;52.460;13.910;2023-07-13T08:28:03;5.82;;;2.05;;
25810;SDS011;13645;52.460;13.910;2023-07-13T08:30:31;4.93;;;1.80;;
25810;SDS011;13645;52.460;13.910;2023-07-13T08:32:58;6.13;;;1.65;;
25810;SDS011;13645;52.460;13.910;2023-07-13T08:35:25;5.13;;;1.40;;
25810;SDS011;13645;52.460;13.910;2023-07-13T08:37:52;4.82;;;1.42;;
25810;SDS011;13645;52.460;13.910;2023-07-13T08:40:19;6.28;;;1.70;;
25810;SDS011;13645;52.460;13.910;2023-07-13T08:42:55;7.13;;;1.58;;
25810;SDS011;13645;52.460;13.910;2023-07-13T08:45:39;5.05;;;1.50;;
25810;SDS011;13645;52.460;13.910;2023-07-13T08:48:43;3.58;;;1.42;;
25810;SDS011;13645;52.460;13.910;2023-07-13T08:54:08;3.75;;;1.40;;
25810;SDS011;13645;52.460;13.910;2023-07-13T08:56:43;3.15;;;1.17;;
25810;SDS011;13645;52.460;13.910;2023-07-13T08:59:16;7.40;;;1.40;;
25810;SDS011;13645;52.460;13.910;2023-07-13T09:04:25;4.38;;;1.30;;
25810;SDS011;13645;52.460;13.910;2023-07-13T09:07:10;7.50;;;1.40;;
25810;SDS011;13645;52.460;13.910;2023-07-13T09:13:07;2.85;;;1.20;;
25810;SDS011;13645;52.460;13.910;2023-07-13T09:15:45;2.53;;;1.10;;
25810;SDS011;13645;52.460;13.910;2023-07-13T09:21:05;3.35;;;1.48;;
25810;SDS011;13645;52.460;13.910;2023-07-13T09:23:39;4.90;;;1.20;;
25810;SDS011;13645;52.460;13.910;2023-07-13T09:26:11;4.97;;;1.38;;
25810;SDS011;13645;52.460;13.910;2023-07-13T09:28:43;6.45;;;1.63;;
25810;SDS011;13645;52.460;13.910;2023-07-13T09:31:14;5.85;;;1.58;;
25810;SDS011;13645;52.460;13.910;2023-07-13T09:33:43;3.67;;;1.40;;
25810;SDS011;13645;52.460;13.910;2023-07-13T09:36:21;5.85;;;1.50;;
25810;SDS011;13645;52.460;13.910;2023-07-13T09:44:08;4.63;;;1.00;;
25810;SDS011;13645;52.460;13.910;2023-07-13T09:46:38;6.47;;;1.40;;
25810;SDS011;13645;52.460;13.910;2023-07-13T09:49:10;5.22;;;1.25;;
25810;SDS011;13645;52.460;13.910;2023-07-13T09:51:38;5.45;;;1.40;;
25810;SDS011;13645;52.460;13.910;2023-07-13T09:54:17;7.70;;;1.50;;
25810;SDS011;13645;52.460;13.910;2023-07-13T09:56:45;3.33;;;1.17;;
25810;SDS011;13645;52.460;13.910;2023-07-13T09:59:19;2.85;;;1.20;;
25810;SDS011;13645;52.460;13.910;2023-07-13T10:01:47;6.63;;;1.42;;
25810;SDS011;13645;52.460;13.910;2023-07-13T10:04:17;4.03;;;1.23;;
25810;SDS011;13645;52.460;13.910;2023-07-13T10:06:45;6.78;;;1.45;;
25810;SDS011;13645;52.460;13.910;2023-07-13T10:09:16;5.30;;;1.70;;
25810;SDS011;13645;52.460;13.910;2023-07-13T10:11:45;4.05;;;1.60;;
25810;SDS011;13645;52.460;13.910;2023-07-13T10:14:16;4.80;;;1.52;;
25810;SDS011;13645;52.460;13.910;2023-07-13T10:16:49;5.97;;;1.33;;
25810;SDS011;13645;52.460;13.910;2023-07-13T10:19:25;8.02;;;1.90;;
25810;SDS011;13645;52.460;13.910;2023-07-13T10:21:57;4.63;;;1.30;;
25810;SDS011;13645;52.460;13.910;2023-07-13T10:24:29;6.75;;;1.83;;
25810;SDS011;13645;52.460;13.910;2023-07-13T10:30:00;6.68;;;1.42;;
25810;SDS011;13645;52.460;13.910;2023-07-13T10:32:35;6.43;;;1.80;;
25810;SDS011;13645;52.460;13.910;2023-07-13T10:35:02;6.45;;;1.70;;
25810;SDS011;13645;52.460;13.910;2023-07-13T10:37:31;4.68;;;1.65;;
25810;SDS011;13645;52.460;13.910;2023-07-13T10:40:05;6.10;;;1.98;;
25810;SDS011;13645;52.460;13.910;2023-07-13T10:42:39;3.35;;;1.45;;
25810;SDS011;13645;52.460;13.910;2023-07-13T10:45:12;3.72;;;1.67;;
25810;SDS011;13645;52.460;13.910;2023-07-13T10:47:44;5.83;;;1.80;;
25810;SDS011;13645;52.460;13.910;2023-07-13T10:50:14;4.03;;;1.50;;
25810;SDS011;13645;52.460;13.910;2023-07-13T10:52:52;4.68;;;1.30;;
25810;SDS011;13645;52.460;13.910;2023-07-13T10:55:40;5.70;;;1.73;;
25810;SDS011;13645;52.460;13.910;2023-07-13T11:01:02;4.45;;;1.40;;
25810;SDS011;13645;52.460;13.910;2023-07-13T11:03:50;4.05;;;1.35;;
25810;SDS011;13645;52.460;13.910;2023-07-13T11:08:54;4.68;;;1.48;;
25810;SDS011;13645;52.460;13.910;2023-07-13T11:24:14;3.53;;;1.45;;
25810;SDS011;13645;52.460;13.910;2023-07-13T11:26:44;6.97;;;1.65;;
25810;SDS011;13645;52.460;13.910;2023-07-13T11:31:54;6.70;;;1.77;;
25810;SDS011;13645;52.460;13.910;2023-07-13T11:34:27;5.22;;;1.73;;
25810;SDS011;13645;52.460;13.910;2023-07-13T11:36:58;7.75;;;1.90;;
25810;SDS011;13645;52.460;13.910;2023-07-13T11:39:33;5.15;;;1.67;;
25810;SDS011;13645;52.460;13.910;2023-07-13T11:42:03;3.78;;;1.70;;
25810;SDS011;13645;52.460;13.910;2023-07-13T11:44:35;4.03;;;1.80;;
25810;SDS011;13645;52.460;13.910;2023-07-13T11:47:24;14.32;;;1.92;;
25810;SDS011;13645;52.460;13.910;2023-07-13T11:49:53;5.95;;;2.00;;
25810;SDS011;13645;52.460;13.910;2023-07-13T11:52:36;6.15;;;1.98;;
25810;SDS011;13645;52.460;13.910;2023-07-13T11:55:04;4.22;;;1.98;;
25810;SDS011;13645;52.460;13.910;2023-07-13T11:57:44;8.25;;;1.80;;
25810;SDS011;13645;52.460;13.910;2023-07-13T12:00:17;7.38;;;1.92;;
25810;SDS011;13645;52.460;13.910;2023-07-13T12:02:49;3.95;;;1.75;;
25810;SDS011;13645;52.460;13.910;2023-07-13T12:05:18;10.90;;;2.00;;
25810;SDS011;13645;52.460;13.910;2023-07-13T12:07:49;4.03;;;1.63;;
25810;SDS011;13645;52.460;13.910;2023-07-13T12:10:18;5.90;;;1.88;;
25810;SDS011;13645;52.460;13.910;2023-07-13T12:12:52;3.97;;;1.70;;
25810;SDS011;13645;52.460;13.910;2023-07-13T12:15:22;3.10;;;1.70;;
25810;SDS011;13645;52.460;13.910;2023-07-13T12:17:49;9.90;;;1.80;;
25810;SDS011;13645;52.460;13.910;2023-07-13T12:20:26;4.63;;;1.70;;
25810;SDS011;13645;52.460;13.910;2023-07-13T12:22:54;6.68;;;1.73;;
25810;SDS011;13645;52.460;13.910;2023-07-13T12:25:22;5.25;;;2.13;;
25810;SDS011;13645;52.460;13.910;2023-07-13T12:27:50;6.95;;;1.63;;
25810;SDS011;13645;52.460;13.910;2023-07-13T12:33:08;5.55;;;1.70;;
25810;SDS011;13645;52.460;13.910;2023-07-13T12:35:42;2.28;;;1.50;;
25810;SDS011;13645;52.460;13.910;2023-07-13T12:38:14;3.17;;;1.50;;
25810;SDS011;13645;52.460;13.910;2023-07-13T12:40:42;3.85;;;1.55;;
25810;SDS011;13645;52.460;13.910;2023-07-13T12:43:12;8.13;;;1.60;;
25810;SDS011;13645;52.460;13.910;2023-07-13T12:48:27;4.68;;;1.58;;
25810;SDS011;13645;52.460;13.910;2023-07-13T12:53:41;3.45;;;1.67;;
25810;SDS011;13645;52.460;13.910;2023-07-13T12:56:13;3.08;;;1.70;;
25810;SDS011;13645;52.460;13.910;2023-07-13T12:58:49;5.07;;;1.80;;
25810;SDS011;13645;52.460;13.910;2023-07-13T13:01:21;5.97;;;1.65;;
25810;SDS011;13645;52.460;13.910;2023-07-13T13:03:50;6.50;;;1.50;;
25810;SDS011;13645;52.460;13.910;2023-07-13T13:06:21;7.43;;;2.10;;
25810;SDS011;13645;52.460;13.910;2023-07-13T13:08:51;7.57;;;1.90;;
25810;SDS011;13645;52.460;13.910;2023-07-13T13:11:23;5.43;;;2.08;;
25810;SDS011;13645;52.460;13.910;2023-07-13T13:13:50;5.45;;;1.63;;
25810;SDS011;13645;52.460;13.910;2023-07-13T13:19:23;6.20;;;1.67;;
25810;SDS011;13645;52.460;13.910;2023-07-13T13:21:53;4.43;;;1.80;;
25810;SDS011;13645;52.460;13.910;2023-07-13T13:24:24;6.38;;;1.70;;
25810;SDS011;13645;52.460;13.910;2023-07-13T13:26:53;8.77;;;1.95;;
25810;SDS011;13645;52.460;13.910;2023-07-13T13:29:23;9.27;;;1.73;;
25810;SDS011;13645;52.460;13.910;2023-07-13T13:31:52;4.57;;;1.70;;
25810;SDS011;13645;52.460;13.910;2023-07-13T13:34:20;4.78;;;1.42;;
25810;SDS011;13645;52.460;13.910;2023-07-13T13:36:52;6.82;;;1.88;;
25810;SDS011;13645;52.460;13.910;2023-07-13T13:39:28;5.90;;;1.75;;
25810;SDS011;13645;52.460;13.910;2023-07-13T13:41:59;6.30;;;1.83;;
25810;SDS011;13645;52.460;13.910;2023-07-13T13:44:26;6.28;;;1.80;;
25810;SDS011;13645;52.460;13.910;2023-07-13T13:46:54;5.97;;;1.52;;
25810;SDS011;13645;52.460;13.910;2023-07-13T13:49:23;5.50;;;1.90;;
25810;SDS011;13645;52.460;13.910;2023-07-13T13:51:52;2.95;;;1.48;;
25810;SDS011;13645;52.460;13.910;2023-07-13T13:54:20;7.55;;;1.65;;
25810;SDS011;13645;52.460;13.910;2023-07-13T13:56:49;7.20;;;1.70;;
25810;SDS011;13645;52.460;13.910;2023-07-13T13:59:17;10.15;;;1.70;;
25810;SDS011;13645;52.460;13.910;2023-07-13T14:01:45;4.55;;;1.52;;
25810;SDS011;13645;52.460;13.910;2023-07-13T14:04:16;3.75;;;1.58;;
25810;SDS011;13645;52.460;13.910;2023-07-13T14:06:45;5.03;;;1.85;;
25810;SDS011;13645;52.460;13.910;2023-07-13T14:09:13;3.78;;;1.50;;
25810;SDS011;13645;52.460;13.910;2023-07-13T14:11:42;7.13;;;1.80;;
25810;SDS011;13645;52.460;13.910;2023-07-13T14:14:16;4.78;;;1.90;;
25810;SDS011;13645;52.460;13.910;2023-07-13T14:16:46;7.40;;;1.40;;
25810;SDS011;13645;52.460;13.910;2023-07-13T14:19:19;7.72;;;2.00;;
25810;SDS011;13645;52.460;13.910;2023-07-13T14:21:47;10.43;;;1.90;;
25810;SDS011;13645;52.460;13.910;2023-07-13T14:24:16;9.77;;;1.55;;
25810;SDS011;13645;52.460;13.910;2023-07-13T14:26:43;4.85;;;1.65;;
25810;SDS011;13645;52.460;13.910;2023-07-13T14:29:13;3.53;;;1.50;;
25810;SDS011;13645;52.460;13.910;2023-07-13T14:31:43;6.53;;;1.80;;
25810;SDS011;13645;52.460;13.910;2023-07-13T14:34:11;4.18;;;1.42;;
25810;SDS011;13645;52.460;13.910;2023-07-13T14:36:42;5.13;;;1.30;;
25810;SDS011;13645;52.460;13.910;2023-07-13T14:39:13;4.47;;;1.65;;
25810;SDS011;13645;52.460;13.910;2023-07-13T14:41:43;3.60;;;1.33;;
25810;SDS011;13645;52.460;13.910;2023-07-13T14:46:41;4.13;;;1.40;;
25810;SDS011;13645;52.460;13.910;2023-07-13T14:49:12;3.08;;;1.48;;
25810;SDS011;13645;52.460;13.910;2023-07-13T14:51:52;4.32;;;1.40;;
25810;SDS011;13645;52.460;13.910;2023-07-13T14:54:23;8.98;;;1.80;;
25810;SDS011;13645;52.460;13.910;2023-07-13T14:56:51;4.38;;;1.40;;
25810;SDS011;13645;52.460;13.910;2023-07-13T14:59:18;5.45;;;1.63;;
25810;SDS011;13645;52.460;13.910;2023-07-13T15:01:45;4.72;;;1.52;;
25810;SDS011;13645;52.460;13.910;2023-07-13T15:04:14;7.50;;;1.60;;
25810;SDS011;13645;52.460;13.910;2023-07-13T15:06:58;4.32;;;1.40;;
25810;SDS011;13645;52.460;13.910;2023-07-13T15:09:28;4.85;;;1.40;;
25810;SDS011;13645;52.460;13.910;2023-07-13T15:11:56;6.88;;;1.63;;
25810;SDS011;13645;52.460;13.910;2023-07-13T15:14:23;3.38;;;1.40;;
25810;SDS011;13645;52.460;13.910;2023-07-13T15:16:52;5.20;;;1.77;;
25810;SDS011;13645;52.460;13.910;2023-07-13T15:19:20;3.60;;;1.30;;
25810;SDS011;13645;52.460;13.910;2023-07-13T15:21:49;4.97;;;1.70;;
25810;SDS011;13645;52.460;13.910;2023-07-13T15:24:18;6.50;;;1.48;;
25810;SDS011;13645;52.460;13.910;2023-07-13T15:26:44;4.72;;;1.67;;
25810;SDS011;13645;52.460;13.910;2023-07-13T15:29:12;2.75;;;1.20;;
25810;SDS011;13645;52.460;13.910;2023-07-13T15:31:40;9.70;;;1.52;;
25810;SDS011;13645;52.460;13.910;2023-07-13T15:34:14;8.48;;;1.42;;
25810;SDS011;13645;52.460;13.910;2023-07-13T15:36:42;3.08;;;1.40;;
25810;SDS011;13645;52.460;13.910;2023-07-13T15:39:15;3.75;;;1.30;;
25810;SDS011;13645;52.460;13.910;2023-07-13T15:41:43;7.88;;;1.83;;